createdAt,value
2024-04-22T00:01:17.359Z,2.58
2024-04-22T00:03:44.845Z,1.90
2024-04-22T00:06:12.369Z,1.27
2024-04-22T00:08:39.762Z,1.17
2024-04-22T00:11:07.416Z,1.10
2024-04-22T00:13:35.632Z,2.28
2024-04-22T00:16:03.129Z,1.48
2024-04-22T00:18:30.533Z,1.20
2024-04-22T00:20:58.158Z,1.13
2024-04-22T00:23:25.673Z,2.70
2024-04-22T00:25:53.066Z,1.20
2024-04-22T00:28:20.587Z,1.30
2024-04-22T00:30:48.074Z,1.58
2024-04-22T00:33:15.672Z,1.50
2024-04-22T00:35:43.340Z,1.30
2024-04-22T00:38:10.725Z,2.55
2024-04-22T00:40:38.509Z,1.45
2024-04-22T00:43:06.356Z,1.17
2024-04-22T00:45:35.037Z,1.27
2024-04-22T00:48:02.638Z,1.30
2024-04-22T00:50:31.156Z,1.35
2024-04-22T00:53:00.263Z,4.30
2024-04-22T00:55:28.411Z,1.30
2024-04-22T00:57:58.561Z,1.35
2024-04-22T01:00:27.113Z,1.75
2024-04-22T01:02:55.192Z,1.73
2024-04-22T01:05:22.692Z,1.00
2024-04-22T01:07:50.269Z,1.30
2024-04-22T01:10:18.000Z,1.85
2024-04-22T01:12:45.508Z,1.98
2024-04-22T01:15:12.942Z,1.15
2024-04-22T01:17:41.956Z,1.75
2024-04-22T01:20:10.305Z,1.23
2024-04-22T01:22:37.825Z,2.45
2024-04-22T01:25:06.432Z,2.97
2024-04-22T01:27:35.001Z,1.65
2024-04-22T01:30:04.056Z,2.15
2024-04-22T01:32:32.921Z,4.70
2024-04-22T01:35:01.910Z,2.95
2024-04-22T01:37:30.563Z,2.58
2024-04-22T01:39:58.180Z,3.97
2024-04-22T01:42:25.880Z,2.13
2024-04-22T01:44:53.523Z,2.22
2024-04-22T01:47:20.967Z,3.85
2024-04-22T01:49:48.535Z,4.93
2024-04-22T01:52:16.070Z,3.20
2024-04-22T01:54:43.636Z,2.85
2024-04-22T01:57:11.168Z,3.13
2024-04-22T01:59:38.581Z,3.20
2024-04-22T02:02:06.124Z,3.17
2024-04-22T02:04:33.678Z,3.03
2024-04-22T02:07:01.133Z,3.58
2024-04-22T02:09:28.603Z,3.10
2024-04-22T02:11:56.285Z,3.70
2024-04-22T02:14:23.846Z,3.72
2024-04-22T02:16:51.397Z,3.72
2024-04-22T02:19:18.891Z,2.83
2024-04-22T02:21:46.363Z,3.72
2024-04-22T02:24:13.743Z,3.47
2024-04-22T02:26:41.252Z,5.80
2024-04-22T02:29:08.730Z,3.50
2024-04-22T02:31:36.240Z,3.35
2024-04-22T02:34:03.810Z,4.10
2024-04-22T02:36:32.149Z,4.18
2024-04-22T02:38:59.631Z,4.97
2024-04-22T02:41:27.176Z,3.20
2024-04-22T02:43:54.702Z,4.15
2024-04-22T02:46:22.265Z,6.03
2024-04-22T02:48:49.846Z,4.90
2024-04-22T02:51:17.261Z,3.53
2024-04-22T02:53:44.657Z,3.13
2024-04-22T02:56:12.108Z,3.83
2024-04-22T02:58:42.569Z,3.83
2024-04-22T03:03:39.634Z,4.10
2024-04-22T03:06:07.342Z,3.88
2024-04-22T03:08:35.096Z,4.10
2024-04-22T03:11:02.667Z,4.47
2024-04-22T03:13:30.177Z,4.80
2024-04-22T03:15:57.819Z,4.50
2024-04-22T03:18:25.405Z,5.20
2024-04-22T03:20:52.818Z,4.82
2024-04-22T03:23:20.263Z,5.25
2024-04-22T03:25:47.722Z,4.95
2024-04-22T03:28:15.124Z,5.70
2024-04-22T03:30:42.559Z,4.30
2024-04-22T03:33:10.060Z,5.22
2024-04-22T03:35:37.517Z,4.63
2024-04-22T03:38:05.123Z,5.07
2024-04-22T03:40:32.683Z,4.93
2024-04-22T03:43:00.194Z,4.43
2024-04-22T03:45:27.694Z,5.15
2024-04-22T03:48:13.766Z,4.72
2024-04-22T03:50:42.594Z,5.40
2024-04-22T03:53:10.347Z,5.72
2024-04-22T03:55:38.734Z,4.93
2024-04-22T03:58:06.296Z,4.53
2024-04-22T04:00:33.866Z,4.28
2024-04-22T04:03:01.467Z,3.88
2024-04-22T04:05:28.961Z,4.22
2024-04-22T04:07:56.420Z,4.35
2024-04-22T04:10:23.886Z,5.13
2024-04-22T04:12:51.326Z,4.18
2024-04-22T04:15:18.719Z,4.82
2024-04-22T04:17:46.269Z,4.20
2024-04-22T04:20:13.680Z,3.63
2024-04-22T04:22:41.181Z,4.13
2024-04-22T04:25:08.828Z,4.97
2024-04-22T04:27:36.302Z,4.88
2024-04-22T04:30:05.006Z,3.92
2024-04-22T04:32:33.099Z,4.25
2024-04-22T04:35:00.659Z,4.50
2024-04-22T04:37:28.148Z,4.30
2024-04-22T04:39:55.829Z,4.43
2024-04-22T04:42:23.228Z,5.38
2024-04-22T04:44:50.612Z,5.03
2024-04-22T04:47:18.141Z,4.85
2024-04-22T04:49:45.838Z,7.65
2024-04-22T04:52:13.259Z,5.25
2024-04-22T04:54:40.801Z,6.20
2024-04-22T04:57:08.191Z,7.65
2024-04-22T04:59:35.637Z,4.40
2024-04-22T05:02:03.278Z,5.85
2024-04-22T05:04:30.725Z,6.28
2024-04-22T05:06:58.222Z,5.78
2024-04-22T05:09:25.790Z,5.38
2024-04-22T05:11:53.290Z,5.35
2024-04-22T05:14:20.777Z,6.00
2024-04-22T05:16:48.361Z,4.78
2024-04-22T05:19:15.978Z,5.68
2024-04-22T05:21:44.072Z,5.47
2024-04-22T05:24:12.287Z,6.43
2024-04-22T05:26:39.695Z,7.50
2024-04-22T05:29:07.223Z,5.93
2024-04-22T05:31:34.853Z,6.22
2024-04-22T05:34:20.966Z,8.48
2024-04-22T05:36:48.529Z,6.43
2024-04-22T05:39:15.985Z,8.15
2024-04-22T05:41:43.579Z,7.68
2024-04-22T05:44:11.139Z,7.25
2024-04-22T05:46:38.619Z,7.20
2024-04-22T05:49:06.541Z,7.65
2024-04-22T05:51:34.130Z,8.43
2024-04-22T05:54:01.574Z,9.55
2024-04-22T05:56:29.055Z,5.50
2024-04-22T05:58:56.598Z,6.85
2024-04-22T06:01:24.162Z,6.57
2024-04-22T06:03:51.826Z,5.60
2024-04-22T06:06:19.288Z,5.65
2024-04-22T06:08:46.689Z,7.28
2024-04-22T06:11:14.226Z,5.57
2024-04-22T06:13:41.800Z,6.25
2024-04-22T06:16:09.421Z,6.93
2024-04-22T06:18:37.438Z,5.75
2024-04-22T06:21:05.210Z,4.82
2024-04-22T06:23:34.065Z,4.28
2024-04-22T06:26:07.972Z,4.28
2024-04-22T06:28:35.863Z,4.10
2024-04-22T06:31:03.979Z,3.88
2024-04-22T06:33:31.771Z,4.22
2024-04-22T06:35:59.218Z,4.65
2024-04-22T06:38:29.564Z,6.00
2024-04-22T06:40:57.120Z,4.25
2024-04-22T06:43:24.566Z,3.13
2024-04-22T06:45:51.945Z,2.47
2024-04-22T06:48:19.497Z,4.35
2024-04-22T06:50:49.318Z,2.85
2024-04-22T06:53:19.144Z,2.75
2024-04-22T06:55:46.822Z,3.85
2024-04-22T06:58:14.301Z,2.33
2024-04-22T07:00:41.901Z,2.20
2024-04-22T07:03:09.649Z,1.88
2024-04-22T07:05:37.213Z,5.05
2024-04-22T07:08:04.958Z,3.55
2024-04-22T07:10:32.632Z,2.75
2024-04-22T07:13:00.254Z,1.55
2024-04-22T07:15:27.688Z,3.67
2024-04-22T07:17:55.293Z,2.17
2024-04-22T07:20:22.806Z,2.17
2024-04-22T07:22:50.267Z,4.85
2024-04-22T07:25:19.461Z,2.10
2024-04-22T07:27:47.147Z,1.52
2024-04-22T07:30:15.273Z,2.33
2024-04-22T07:32:43.255Z,2.05
2024-04-22T07:35:12.482Z,1.33
2024-04-22T07:37:47.278Z,1.70
2024-04-22T07:40:19.995Z,2.10
2024-04-22T07:42:48.537Z,1.92
2024-04-22T07:45:18.532Z,1.02
2024-04-22T07:47:46.784Z,1.08
2024-04-22T07:50:14.637Z,1.73
2024-04-22T07:52:42.825Z,0.52
2024-04-22T07:55:12.631Z,0.95
2024-04-22T07:57:43.790Z,1.08
2024-04-22T08:00:13.447Z,1.30
2024-04-22T08:02:41.753Z,0.93
2024-04-22T08:05:10.301Z,1.13
2024-04-22T08:07:41.183Z,1.42
2024-04-22T08:10:08.822Z,1.10
2024-04-22T08:12:38.321Z,1.20
2024-04-22T08:15:05.965Z,2.28
2024-04-22T08:17:33.615Z,1.77
2024-04-22T08:20:01.228Z,1.13
2024-04-22T08:22:29.290Z,1.35
2024-04-22T08:24:57.170Z,1.27
2024-04-22T08:27:24.872Z,1.20
2024-04-22T08:29:55.246Z,2.35
2024-04-22T08:32:23.414Z,1.65
2024-04-22T08:34:52.358Z,1.40
2024-04-22T08:37:19.824Z,3.97
2024-04-22T08:39:47.332Z,1.38
2024-04-22T08:42:16.234Z,1.67
2024-04-22T08:44:43.789Z,2.65
2024-04-22T08:47:11.334Z,1.35
2024-04-22T08:49:39.006Z,1.73
2024-04-22T08:52:06.890Z,2.45
2024-04-22T08:54:36.701Z,1.52
2024-04-22T08:57:06.051Z,2.17
2024-04-22T08:59:39.894Z,3.20
2024-04-22T09:02:09.262Z,2.15
2024-04-22T09:04:37.196Z,2.83
2024-04-22T09:07:09.487Z,1.77
2024-04-22T09:09:47.799Z,1.33
2024-04-22T09:12:24.831Z,1.80
2024-04-22T09:15:02.945Z,4.55
2024-04-22T09:17:31.220Z,2.40
2024-04-22T09:19:59.079Z,5.03
2024-04-22T09:22:26.595Z,3.75
2024-04-22T09:24:54.776Z,2.45
2024-04-22T09:27:23.285Z,3.67
2024-04-22T09:29:53.296Z,50.00
2024-04-22T09:32:22.534Z,3.22
2024-04-22T09:34:51.381Z,3.30
2024-04-22T09:37:18.946Z,4.82
2024-04-22T09:39:47.106Z,4.03
2024-04-22T09:42:14.799Z,5.82
2024-04-22T09:44:43.610Z,7.40
2024-04-22T09:47:11.525Z,9.50
2024-04-22T09:49:39.980Z,5.28
2024-04-22T09:52:08.978Z,4.45
2024-04-22T09:54:36.592Z,5.35
2024-04-22T09:57:05.994Z,6.85
2024-04-22T09:59:33.605Z,6.28
2024-04-22T10:02:01.260Z,5.18
2024-04-22T10:04:29.044Z,6.05
2024-04-22T10:06:56.804Z,4.38
2024-04-22T10:09:24.690Z,4.50
2024-04-22T10:11:53.475Z,4.57
2024-04-22T10:14:22.504Z,7.88
2024-04-22T10:17:02.853Z,4.22
2024-04-22T10:19:35.306Z,5.95
2024-04-22T10:22:04.886Z,5.40
2024-04-22T10:24:40.216Z,4.20
2024-04-22T10:27:13.396Z,4.30
2024-04-22T10:29:44.566Z,3.92
2024-04-22T10:32:12.119Z,3.47
2024-04-22T10:34:45.825Z,3.80
2024-04-22T10:37:14.680Z,3.95
2024-04-22T10:39:44.147Z,5.50
2024-04-22T10:42:12.487Z,4.47
2024-04-22T10:44:42.597Z,5.68
2024-04-22T10:47:10.072Z,9.77
2024-04-22T10:49:38.234Z,8.32
2024-04-22T10:52:06.197Z,7.50
2024-04-22T10:54:33.745Z,7.13
2024-04-22T10:57:01.596Z,4.85
2024-04-22T10:59:29.952Z,7.53
2024-04-22T11:01:58.270Z,4.75
2024-04-22T11:04:26.199Z,5.70
2024-04-22T11:06:53.825Z,4.95
2024-04-22T11:09:21.640Z,6.75
2024-04-22T11:11:50.196Z,3.17
2024-04-22T11:14:17.801Z,3.88
2024-04-22T11:16:45.220Z,5.63
2024-04-22T11:19:12.986Z,6.25
2024-04-22T11:21:41.423Z,4.53
2024-04-22T11:24:09.379Z,6.88
2024-04-22T11:26:37.883Z,4.13
2024-04-22T11:29:05.902Z,7.63
2024-04-22T11:31:35.793Z,4.10
2024-04-22T11:34:03.252Z,4.35
2024-04-22T11:36:35.373Z,3.58
2024-04-22T11:39:16.294Z,4.10
2024-04-22T11:41:44.278Z,3.70
2024-04-22T11:44:11.797Z,4.75
2024-04-22T11:46:41.222Z,3.90
2024-04-22T11:49:08.897Z,7.35
2024-04-22T11:51:36.461Z,7.93
2024-04-22T11:54:05.955Z,5.00
2024-04-22T11:56:41.708Z,4.47
2024-04-22T11:59:09.273Z,4.43
2024-04-22T12:01:36.971Z,4.80
2024-04-22T12:04:04.633Z,4.05
2024-04-22T12:06:32.380Z,3.78
2024-04-22T12:09:03.143Z,3.63
2024-04-22T12:11:33.091Z,2.75
2024-04-22T12:14:02.038Z,5.10
2024-04-22T12:16:29.727Z,4.68
2024-04-22T12:18:57.312Z,4.28
2024-04-22T12:21:24.674Z,4.00
2024-04-22T12:23:52.077Z,3.75
2024-04-22T12:26:19.600Z,4.90
2024-04-22T12:28:47.179Z,6.50
2024-04-22T12:31:14.897Z,8.23
2024-04-22T12:33:53.774Z,8.60
2024-04-22T12:36:29.758Z,11.27
2024-04-22T12:38:57.259Z,6.75
2024-04-22T12:41:24.750Z,6.90
2024-04-22T12:43:52.350Z,7.75
2024-04-22T12:46:19.940Z,7.03
2024-04-22T12:49:05.949Z,10.15
2024-04-22T12:51:33.476Z,6.80
2024-04-22T12:54:00.974Z,7.35
2024-04-22T12:56:29.750Z,8.50
2024-04-22T12:58:59.849Z,7.65
2024-04-22T13:01:28.117Z,8.07
2024-04-22T13:03:55.720Z,7.85
2024-04-22T13:06:23.233Z,9.30
2024-04-22T13:08:50.641Z,8.98
2024-04-22T13:11:22.788Z,8.32
2024-04-22T13:13:50.412Z,7.05
2024-04-22T13:16:17.925Z,7.57
2024-04-22T13:18:45.553Z,6.82
2024-04-22T13:21:13.088Z,6.88
2024-04-22T13:23:40.459Z,6.25
2024-04-22T13:26:08.074Z,5.80
2024-04-22T13:28:35.527Z,6.57
2024-04-22T13:31:05.163Z,9.43
2024-04-22T13:33:32.768Z,9.77
2024-04-22T13:36:01.396Z,12.05
2024-04-22T13:38:28.923Z,10.57
2024-04-22T13:40:56.429Z,6.40
2024-04-22T13:43:25.011Z,6.80
2024-04-22T13:45:52.584Z,10.13
2024-04-22T13:48:20.219Z,6.70
2024-04-22T13:50:47.920Z,4.55
2024-04-22T13:53:23.632Z,3.67
2024-04-22T13:58:27.608Z,5.20
2024-04-22T14:00:55.640Z,5.68
2024-04-22T14:03:23.235Z,7.60
2024-04-22T14:05:53.496Z,5.35
2024-04-22T14:08:21.000Z,6.03
2024-04-22T14:10:48.584Z,5.32
2024-04-22T14:13:16.072Z,10.13
2024-04-22T14:15:47.603Z,9.60
2024-04-22T14:18:16.076Z,6.80
2024-04-22T14:20:44.303Z,17.48
2024-04-22T14:23:11.764Z,8.30
2024-04-22T14:25:39.351Z,5.38
2024-04-22T14:28:07.115Z,5.80
2024-04-22T14:30:34.602Z,6.72
2024-04-22T14:33:02.225Z,6.03
2024-04-22T14:35:29.797Z,5.90
2024-04-22T14:37:57.365Z,5.00
2024-04-22T14:40:25.092Z,5.78
2024-04-22T14:42:52.674Z,4.93
2024-04-22T14:45:20.317Z,4.00
2024-04-22T14:47:47.804Z,3.65
2024-04-22T14:50:15.442Z,3.30
2024-04-22T14:52:43.005Z,6.57
2024-04-22T14:55:11.081Z,5.90
2024-04-22T14:57:38.857Z,5.30
2024-04-22T15:00:07.266Z,7.35
2024-04-22T15:02:34.714Z,6.75
2024-04-22T15:05:06.263Z,7.30
2024-04-22T15:07:34.929Z,10.65
2024-04-22T15:10:03.236Z,11.85
2024-04-22T15:12:30.940Z,7.82
2024-04-22T15:14:59.239Z,6.65
2024-04-22T15:17:27.121Z,23.33
2024-04-22T15:19:54.713Z,16.40
2024-04-22T15:22:22.398Z,11.30
2024-04-22T15:24:49.870Z,12.50
2024-04-22T15:27:17.349Z,8.13
2024-04-22T15:29:44.828Z,11.13
2024-04-22T15:32:12.676Z,9.02
2024-04-22T15:34:42.127Z,6.20
2024-04-22T15:37:10.027Z,11.45
2024-04-22T15:39:37.587Z,10.13
2024-04-22T15:42:05.323Z,15.88
2024-04-22T15:44:33.520Z,22.30
2024-04-22T15:47:01.889Z,22.30
2024-04-22T15:49:29.530Z,20.98
2024-04-22T15:51:58.751Z,22.83
2024-04-22T15:54:27.887Z,15.88
2024-04-22T15:56:55.366Z,19.67
2024-04-22T15:59:22.830Z,18.55
2024-04-22T16:01:50.530Z,19.67
2024-04-22T16:04:18.670Z,18.80
2024-04-22T16:06:46.114Z,19.20
2024-04-22T16:09:13.829Z,13.63
2024-04-22T16:11:41.425Z,13.02
2024-04-22T16:14:10.015Z,10.20
2024-04-22T16:16:37.647Z,8.05
2024-04-22T16:19:05.186Z,6.55
2024-04-22T16:21:32.655Z,5.40
2024-04-22T16:24:00.386Z,9.60
2024-04-22T16:26:28.028Z,10.52
2024-04-22T16:28:55.695Z,15.52
2024-04-22T16:31:23.282Z,18.52
2024-04-22T16:33:50.778Z,20.27
2024-04-22T16:36:18.211Z,28.92
2024-04-22T16:38:45.882Z,10.70
2024-04-22T16:41:13.397Z,14.82
2024-04-22T16:43:41.254Z,19.38
2024-04-22T16:46:10.898Z,9.18
2024-04-22T16:48:40.544Z,9.75
2024-04-22T16:51:08.047Z,7.63
2024-04-22T16:53:35.656Z,11.85
2024-04-22T16:56:03.098Z,14.30
2024-04-22T16:58:33.142Z,15.77
2024-04-22T17:01:00.677Z,19.38
2024-04-22T17:03:28.696Z,25.55
2024-04-22T17:05:57.077Z,20.95
2024-04-22T17:08:24.449Z,17.77
2024-04-22T17:10:52.656Z,24.33
2024-04-22T17:13:20.876Z,15.65
2024-04-22T17:15:48.871Z,17.48
2024-04-22T17:18:17.016Z,21.13
2024-04-22T17:20:53.657Z,21.92
2024-04-22T17:23:25.006Z,26.70
2024-04-22T17:25:52.521Z,27.55
2024-04-22T17:28:22.175Z,34.10
2024-04-22T17:30:54.218Z,33.70
2024-04-22T17:33:21.838Z,37.05
2024-04-22T17:35:51.024Z,37.15
2024-04-22T17:38:25.747Z,37.45
2024-04-22T17:40:55.583Z,47.10
2024-04-22T17:43:23.799Z,29.23
2024-04-22T17:46:04.694Z,29.17
2024-04-22T17:48:33.444Z,35.23
2024-04-22T17:51:02.063Z,32.25
2024-04-22T17:53:30.642Z,27.92
2024-04-22T17:55:58.949Z,35.33
2024-04-22T17:58:28.676Z,41.33
2024-04-22T18:00:56.682Z,41.42
2024-04-22T18:03:25.345Z,40.97
2024-04-22T18:05:53.667Z,38.45
2024-04-22T18:08:21.799Z,48.92
2024-04-22T18:10:50.706Z,61.22
2024-04-22T18:13:19.002Z,45.90
2024-04-22T18:15:47.732Z,60.05
2024-04-22T18:18:16.114Z,32.08
2024-04-22T18:20:44.697Z,35.50
2024-04-22T18:23:13.110Z,31.30
2024-04-22T18:25:42.248Z,42.40
2024-04-22T18:28:10.621Z,40.05
2024-04-22T18:30:42.848Z,46.80
2024-04-22T18:33:18.617Z,56.28
2024-04-22T18:35:55.547Z,48.92
2024-04-22T18:38:24.930Z,60.08
2024-04-22T18:40:53.393Z,55.72
2024-04-22T18:43:22.028Z,40.55
2024-04-22T18:45:50.670Z,35.65
2024-04-22T18:48:19.259Z,30.92
2024-04-22T18:50:51.905Z,39.58
2024-04-22T18:53:21.930Z,35.20
2024-04-22T18:55:51.145Z,30.50
2024-04-22T18:58:19.774Z,32.15
2024-04-22T19:00:52.392Z,21.88
2024-04-22T19:03:21.613Z,17.27
2024-04-22T19:05:50.906Z,23.35
2024-04-22T19:08:20.324Z,18.60
2024-04-22T19:10:48.959Z,22.48
2024-04-22T19:13:18.631Z,19.40
2024-04-22T19:15:47.233Z,22.02
2024-04-22T19:18:15.661Z,23.95
2024-04-22T19:20:44.166Z,23.17
2024-04-22T19:23:12.156Z,28.15
2024-04-22T19:25:42.218Z,25.60
2024-04-22T19:28:10.071Z,23.98
2024-04-22T19:30:41.507Z,19.60
2024-04-22T19:33:11.154Z,28.73
2024-04-22T19:35:39.737Z,35.90
2024-04-22T19:38:08.775Z,44.00
2024-04-22T19:40:37.973Z,51.20
2024-04-22T19:43:06.408Z,42.35
2024-04-22T19:45:34.022Z,39.47
2024-04-22T19:48:02.029Z,34.97
2024-04-22T19:50:32.132Z,37.03
2024-04-22T19:53:00.795Z,34.92
2024-04-22T19:55:29.650Z,41.03
2024-04-22T19:57:58.526Z,30.58
2024-04-22T20:00:28.246Z,36.38
2024-04-22T20:02:57.059Z,36.20
2024-04-22T20:05:25.755Z,41.33
2024-04-22T20:07:54.947Z,31.73
2024-04-22T20:10:23.158Z,30.95
2024-04-22T20:12:52.350Z,22.52
2024-04-22T20:15:41.870Z,14.10
2024-04-22T20:18:16.056Z,9.57
2024-04-22T20:20:47.825Z,10.77
2024-04-22T20:23:15.564Z,8.32
2024-04-22T20:25:43.152Z,9.20
2024-04-22T20:28:10.803Z,14.77
2024-04-22T20:30:38.538Z,14.48
2024-04-22T20:33:06.726Z,12.65
2024-04-22T20:35:37.709Z,11.05
2024-04-22T20:38:06.874Z,12.98
2024-04-22T20:40:34.293Z,9.50
2024-04-22T20:43:01.736Z,13.20
2024-04-22T20:45:31.185Z,9.95
2024-04-22T20:47:58.618Z,10.70
2024-04-22T20:50:26.058Z,8.82
2024-04-22T20:52:55.287Z,9.13
2024-04-22T20:55:22.747Z,8.35
2024-04-22T20:57:50.284Z,12.80
2024-04-22T21:00:17.883Z,7.88
2024-04-22T21:02:45.460Z,8.27
2024-04-22T21:05:13.123Z,8.98
2024-04-22T21:07:40.595Z,8.50
2024-04-22T21:10:08.208Z,8.20
2024-04-22T21:12:35.604Z,9.70
2024-04-22T21:15:03.189Z,7.93
2024-04-22T21:17:30.685Z,8.70
2024-04-22T21:19:58.675Z,6.65
2024-04-22T21:22:26.217Z,8.85
2024-04-22T21:24:53.677Z,8.23
2024-04-22T21:27:21.161Z,7.13
2024-04-22T21:29:48.771Z,10.15
2024-04-22T21:32:18.176Z,9.77
2024-04-22T21:34:45.752Z,7.07
2024-04-22T21:37:13.280Z,9.02
2024-04-22T21:39:40.918Z,11.10
2024-04-22T21:42:08.337Z,9.05
2024-04-22T21:44:35.862Z,7.75
2024-04-22T21:47:03.325Z,8.63
2024-04-22T21:49:30.804Z,9.23
2024-04-22T21:51:58.213Z,8.70
2024-04-22T21:54:25.686Z,7.88
2024-04-22T21:56:53.196Z,8.35
2024-04-22T21:59:58.300Z,9.50
2024-04-22T22:03:03.385Z,7.65
2024-04-22T22:06:08.656Z,6.07
2024-04-22T22:08:35.834Z,6.68
2024-04-22T22:11:03.624Z,6.90
2024-04-22T22:13:31.218Z,6.68
2024-04-22T22:15:59.615Z,6.40
2024-04-22T22:18:27.164Z,7.00
2024-04-22T22:20:54.612Z,7.47
2024-04-22T22:23:22.121Z,7.90
2024-04-22T22:25:49.578Z,10.20
2024-04-22T22:28:17.007Z,7.63
2024-04-22T22:30:44.600Z,9.82
2024-04-22T22:33:12.143Z,10.70
2024-04-22T22:35:39.598Z,11.32
2024-04-22T22:38:07.132Z,10.68
2024-04-22T22:40:34.591Z,13.15
2024-04-22T22:43:01.987Z,10.98
2024-04-22T22:45:29.539Z,9.40
2024-04-22T22:47:57.097Z,9.77
2024-04-22T22:50:24.548Z,7.28
2024-04-22T22:52:51.985Z,7.13
2024-04-22T22:55:19.346Z,9.15
2024-04-22T22:57:46.784Z,7.40
2024-04-22T23:00:14.576Z,8.27
2024-04-22T23:02:42.199Z,10.10
2024-04-22T23:05:09.744Z,8.63
2024-04-22T23:07:37.104Z,8.45
2024-04-22T23:10:04.798Z,9.55
2024-04-22T23:12:32.181Z,9.00
2024-04-22T23:14:59.617Z,8.40
2024-04-22T23:17:27.043Z,6.93
2024-04-22T23:19:55.142Z,6.80
2024-04-22T23:22:22.829Z,6.78
2024-04-22T23:24:50.519Z,7.68
2024-04-22T23:27:20.714Z,7.60
2024-04-22T23:29:48.552Z,7.55
2024-04-22T23:32:16.045Z,6.53
2024-04-22T23:34:43.634Z,8.20
2024-04-22T23:37:11.099Z,6.50
2024-04-22T23:39:38.627Z,5.55
2024-04-22T23:42:06.809Z,7.13
2024-04-22T23:44:34.391Z,6.63
2024-04-22T23:47:02.188Z,5.75
2024-04-22T23:49:29.689Z,7.45
2024-04-22T23:51:57.381Z,6.00
2024-04-22T23:54:24.751Z,7.03
2024-04-22T23:57:02.898Z,6.07
2024-04-22T23:59:30.846Z,8.82
